Time;durP1;ratioP1;P1;durP2;ratioP2;P2;SDS_P1;SDS_P2;PMS_P1;PMS_P2;Temp;Humidity;BMP_temperature;BMP_pressure;BME280_temperature;BME280_humidity;BME280_pressure;Samples;Min_cycle;Max_cycle;Signal;HPM_P1;HPM_P2
2024/01/03 00:01:42;;;;;;;5.40;4.25;;;;;;;2.63;100.00;96332.31;1224426;67;2916598;-63
2024/01/03 00:04:29;;;;;;;6.30;4.30;;;;;;;2.67;100.00;96342.97;1224948;75;2921504;-66
2024/01/03 00:07:01;;;;;;;6.10;4.10;;;;;;;2.63;100.00;96334.28;1223727;75;2915753;-65
2024/01/03 00:09:37;;;;;;;7.45;4.95;;;;;;;2.47;100.00;96340.78;1219690;75;2922453;-65
2024/01/03 00:12:13;;;;;;;7.25;4.70;;;;;;;2.67;100.00;96348.38;1223249;75;2922037;-65
2024/01/03 00:14:46;;;;;;;6.15;4.15;;;;;;;2.60;100.00;96364.88;1224324;75;2922806;-64
2024/01/03 00:17:19;;;;;;;6.95;5.10;;;;;;;2.52;100.00;96342.84;1221950;75;3036442;-65
2024/01/03 00:19:58;;;;;;;7.00;4.20;;;;;;;2.70;100.00;96345.50;1224915;75;2915625;-66
2024/01/03 00:22:31;;;;;;;6.15;4.50;;;;;;;2.66;100.00;96358.44;1224627;75;2923768;-65
2024/01/03 00:25:08;;;;;;;10.20;6.95;;;;;;;2.38;100.00;96351.59;1224503;75;2918522;-65
2024/01/03 00:27:41;;;;;;;9.30;6.20;;;;;;;2.54;100.00;96343.16;1224781;75;2921111;-64
2024/01/03 00:30:15;;;;;;;8.25;5.55;;;;;;;2.70;100.00;96333.97;1224650;75;2918422;-64
2024/01/03 00:32:48;;;;;;;7.20;4.70;;;;;;;2.62;100.00;96330.06;1224499;75;2926553;-64
2024/01/03 00:35:22;;;;;;;22.55;13.50;;;;;;;2.75;100.00;96323.28;1224492;75;2916918;-65
2024/01/03 00:37:54;;;;;;;14.70;9.30;;;;;;;2.78;100.00;96308.09;1224377;75;2919582;-63
2024/01/03 00:40:58;;;;;;;11.75;7.35;;;;;;;2.83;100.00;96312.88;1223091;75;2921205;-66
2024/01/03 00:43:31;;;;;;;8.70;5.70;;;;;;;2.68;100.00;96309.34;1224306;75;2930178;-68
2024/01/03 00:46:05;;;;;;;6.40;4.70;;;;;;;2.71;100.00;96311.13;1222418;75;2916278;-64
2024/01/03 00:48:40;;;;;;;6.95;3.95;;;;;;;2.87;100.00;96321.59;1222682;75;2931639;-64
2024/01/03 00:51:13;;;;;;;5.35;3.60;;;;;;;2.81;100.00;96303.75;1223728;75;2917903;-66
2024/01/03 00:53:46;;;;;;;5.20;3.45;;;;;;;2.63;100.00;96313.41;1224619;75;2920581;-63
2024/01/03 00:56:22;;;;;;;6.40;4.20;;;;;;;2.51;100.00;96311.66;1223693;75;2924513;-66
2024/01/03 00:58:55;;;;;;;6.05;4.35;;;;;;;2.64;100.00;96327.66;1223622;75;2925090;-64
2024/01/03 06:32:42;;;;;;;5.60;4.30;;;;;;;2.09;100.00;96428.38;1231091;71;2761204;31
2024/01/03 06:35:33;;;;;;;5.70;4.75;;;;;;;1.84;100.00;96440.97;1222663;75;2846264;-66
2024/01/03 06:38:06;;;;;;;8.60;5.65;;;;;;;1.89;100.00;96453.09;1222679;75;2919607;-66
2024/01/03 06:40:39;;;;;;;7.60;5.45;;;;;;;2.03;100.00;96454.50;1221991;75;2931111;-67
2024/01/03 06:43:12;;;;;;;7.00;5.00;;;;;;;2.08;100.00;96454.63;1222418;75;2933899;-66
2024/01/03 06:45:45;;;;;;;6.30;4.70;;;;;;;2.16;100.00;96451.66;1222835;75;2922907;-68
2024/01/03 06:48:18;;;;;;;8.85;4.80;;;;;;;2.18;100.00;96460.06;1224098;75;2926581;-67
2024/01/03 06:50:53;;;;;;;6.50;5.00;;;;;;;2.07;100.00;96465.91;1223839;75;2916651;-66
2024/01/03 06:53:26;;;;;;;5.45;4.00;;;;;;;2.12;100.00;96466.06;1223067;75;2920587;-67
2024/01/03 06:55:59;;;;;;;6.90;4.40;;;;;;;2.10;100.00;96460.34;1222660;75;2933098;-67
2024/01/03 06:58:32;;;;;;;5.35;4.00;;;;;;;2.02;100.00;96463.78;1224006;75;2926226;-66
2024/01/03 07:01:05;;;;;;;4.55;3.25;;;;;;;2.02;100.00;96464.53;1223753;75;2928734;-64
2024/01/03 07:03:37;;;;;;;4.65;3.45;;;;;;;2.03;100.00;96457.19;1223150;75;2922218;-65
2024/01/03 07:06:13;;;;;;;4.45;3.00;;;;;;;1.72;100.00;96457.28;1224399;75;2920328;-66
2024/01/03 07:08:47;;;;;;;3.55;2.60;;;;;;;1.89;100.00;96458.50;1223288;75;2921976;-68
2024/01/03 07:11:20;;;;;;;3.25;2.50;;;;;;;1.97;100.00;96448.16;1224191;75;2926255;-69
2024/01/03 07:13:53;;;;;;;5.20;3.75;;;;;;;1.61;100.00;96450.34;1224394;75;2923237;-66
2024/01/03 07:16:25;;;;;;;6.65;4.80;;;;;;;1.42;100.00;96446.84;1224299;75;2947166;-66
2024/01/03 07:19:00;;;;;;;7.00;5.10;;;;;;;1.41;100.00;96445.31;1223991;75;2918855;-64
2024/01/03 07:21:35;;;;;;;6.40;4.30;;;;;;;1.76;100.00;96445.16;1223868;75;2920789;-67
2024/01/03 07:24:10;;;;;;;6.10;3.85;;;;;;;1.78;100.00;96442.00;1223335;75;2949607;-67
2024/01/03 07:26:43;;;;;;;5.45;3.90;;;;;;;1.77;100.00;96440.50;1223455;75;2919794;-65
2024/01/03 07:29:16;;;;;;;4.65;3.15;;;;;;;1.76;100.00;96431.66;1224323;75;2918908;-67
2024/01/03 07:31:48;;;;;;;4.15;2.95;;;;;;;1.65;100.00;96436.72;1223387;75;2917169;-67
2024/01/03 07:34:21;;;;;;;4.85;3.40;;;;;;;1.97;100.00;96443.53;1224839;75;2920119;-68
2024/01/03 07:36:57;;;;;;;3.15;2.50;;;;;;;2.05;100.00;96442.03;1222819;75;2925302;-68
2024/01/03 07:39:30;;;;;;;3.25;2.15;;;;;;;2.12;100.00;96441.00;1220461;75;3037919;-68
2024/01/03 07:42:02;;;;;;;4.25;2.70;;;;;;;2.13;100.00;96456.00;1223306;75;2918003;-67
2024/01/03 07:44:41;;;;;;;3.55;2.45;;;;;;;2.19;100.00;96456.91;1223102;75;2922245;-66
2024/01/03 07:47:14;;;;;;;;;;;;;;;2.82;100.00;96448.50;1223937;75;2937171;-67
2024/01/03 07:49:47;;;;;;;2.40;2.00;;;;;;;3.42;100.00;96458.53;1225000;75;2921229;-67
2024/01/03 07:52:23;;;;;;;5.20;4.05;;;;;;;4.70;100.00;96456.97;1224146;75;2929230;-65
2024/01/03 07:54:55;;;;;;;3.95;2.60;;;;;;;5.59;100.00;96447.28;1223936;75;2930100;-67
2024/01/03 07:57:28;;;;;;;2.60;2.05;;;;;;;6.40;97.83;96447.38;1224544;75;2931595;-66
2024/01/03 08:00:01;;;;;;;2.70;2.25;;;;;;;6.39;93.11;96432.28;1223979;75;2922922;-66
2024/01/03 08:02:34;;;;;;;2.75;1.90;;;;;;;6.74;91.86;96431.44;1223224;75;2931748;-69
2024/01/03 08:05:08;;;;;;;3.65;2.25;;;;;;;6.27;95.38;96444.25;1223675;75;2920796;-68
2024/01/03 08:07:43;;;;;;;3.10;2.35;;;;;;;5.92;95.63;96445.03;1223881;75;2934073;-68
2024/01/03 08:10:16;;;;;;;3.60;2.60;;;;;;;5.49;100.00;96435.81;1223144;75;2926328;-67
2024/01/03 08:12:49;;;;;;;4.15;2.70;;;;;;;5.52;100.00;96441.03;1223268;75;2928389;-67
2024/01/03 08:15:22;;;;;;;3.75;2.65;;;;;;;4.88;100.00;96442.50;1223229;75;2921732;-67
2024/01/03 08:17:54;;;;;;;3.70;2.45;;;;;;;5.03;100.00;96433.63;1223657;75;2924582;-68
2024/01/03 08:20:27;;;;;;;3.25;2.20;;;;;;;5.60;100.00;96438.66;1223378;75;2927461;-67
2024/01/03 08:23:03;;;;;;;2.65;1.80;;;;;;;5.84;100.00;96446.66;1223804;75;2921561;-67
2024/01/03 08:25:35;;;;;;;2.70;1.95;;;;;;;5.67;100.00;96441.00;1223537;75;2932653;-68
2024/01/03 08:28:09;;;;;;;2.00;1.65;;;;;;;5.67;100.00;96438.28;1223939;75;2930555;-66
2024/01/03 08:30:42;;;;;;;4.65;2.25;;;;;;;5.55;100.00;96442.78;1223725;75;2918789;-67
2024/01/03 08:33:15;;;;;;;2.95;1.85;;;;;;;5.65;100.00;96439.97;1223866;75;2922505;-65
2024/01/03 08:35:48;;;;;;;2.85;2.35;;;;;;;5.73;100.00;96430.22;1223489;75;2926393;-66
2024/01/03 08:38:23;;;;;;;2.70;1.80;;;;;;;5.91;100.00;96427.25;1222837;75;2936025;-68
2024/01/03 08:40:56;;;;;;;2.30;1.75;;;;;;;6.04;100.00;96439.75;1222959;75;2933832;-67
2024/01/03 08:43:29;;;;;;;3.95;2.55;;;;;;;5.98;100.00;96437.72;1223713;75;2922369;-66
2024/01/03 08:46:06;;;;;;;5.95;2.40;;;;;;;6.46;100.00;96439.28;1223423;75;2923130;-69
2024/01/03 08:48:40;;;;;;;4.85;2.90;;;;;;;6.69;96.57;96445.72;1224291;75;2882255;-67
2024/01/03 08:51:16;;;;;;;4.20;2.70;;;;;;;6.63;98.66;96455.03;1222879;75;2922756;-67
2024/01/03 08:53:52;;;;;;;4.30;2.70;;;;;;;6.76;99.73;96445.31;1223837;75;2922077;-67
2024/01/03 08:56:25;;;;;;;6.75;3.95;;;;;;;6.15;100.00;96445.34;1222787;75;2920861;-69
2024/01/03 08:59:00;;;;;;;6.00;3.70;;;;;;;6.83;100.00;96461.19;1224132;75;2917411;-68
2024/01/03 09:01:34;;;;;;;5.90;3.50;;;;;;;6.71;100.00;96465.03;1223914;75;2919188;-67
2024/01/03 09:04:07;;;;;;;3.60;2.50;;;;;;;7.23;99.36;96486.03;1223409;75;2927821;-66
2024/01/03 09:06:40;;;;;;;4.30;2.90;;;;;;;7.46;97.62;96487.00;1223813;75;2921456;-67
2024/01/03 09:09:15;;;;;;;4.20;3.00;;;;;;;7.48;97.46;96492.69;1223953;75;2920167;-67
2024/01/03 09:11:49;;;;;;;4.75;3.15;;;;;;;8.07;94.02;96486.63;1222788;75;2916163;-67
2024/01/03 09:14:22;;;;;;;4.95;3.05;;;;;;;8.78;87.32;96490.69;1223512;75;2927444;-67
2024/01/03 09:16:55;;;;;;;6.05;3.30;;;;;;;8.91;84.24;96491.72;1223494;75;2922023;-66
2024/01/03 09:19:27;;;;;;;5.65;3.85;;;;;;;9.32;81.86;96504.19;1223326;75;2926701;-69
2024/01/03 09:22:01;;;;;;;6.10;3.50;;;;;;;9.97;76.17;96503.19;1224375;75;2924561;-69
2024/01/03 09:24:36;;;;;;;7.00;3.60;;;;;;;9.57;77.57;96511.41;1223019;75;2921292;-67
2024/01/03 09:27:09;;;;;;;5.35;2.90;;;;;;;10.51;73.35;96508.31;1223357;75;2922715;-68
2024/01/03 09:29:44;;;;;;;3.75;2.50;;;;;;;11.83;69.17;96513.22;1222645;75;2921504;-68
2024/01/03 09:32:20;;;;;;;3.65;2.20;;;;;;;12.48;66.38;96508.84;1223843;75;2926341;-67
2024/01/03 09:34:52;;;;;;;4.35;1.70;;;;;;;12.93;62.59;96517.28;1207915;75;4063656;-65
2024/01/03 09:37:25;;;;;;;2.65;1.85;;;;;;;13.45;60.30;96514.63;1223536;75;2922939;-65
2024/01/03 09:40:01;;;;;;;3.10;1.85;;;;;;;14.35;57.36;96519.34;1222948;75;2920073;-65
2024/01/03 09:42:34;;;;;;;5.05;2.50;;;;;;;13.71;58.38;96517.47;1223403;75;2921179;-66
2024/01/03 09:45:08;;;;;;;3.80;1.90;;;;;;;15.33;56.85;96503.84;1222566;75;2938557;-66
2024/01/03 09:47:41;;;;;;;2.35;1.55;;;;;;;15.91;54.32;96502.00;1224029;75;2925058;-68
2024/01/03 09:50:14;;;;;;;2.75;1.90;;;;;;;17.10;51.36;96497.53;1222844;75;2925540;-66
2024/01/03 09:52:48;;;;;;;4.25;1.70;;;;;;;17.26;51.44;96487.25;1223486;75;2922524;-67
2024/01/03 09:55:23;;;;;;;2.20;1.50;;;;;;;18.78;48.32;96484.97;1223223;75;2915700;-70
2024/01/03 09:57:57;;;;;;;4.05;2.35;;;;;;;17.98;47.06;96477.19;1224209;75;2926077;-66
2024/01/03 10:00:30;;;;;;;4.45;2.35;;;;;;;17.09;48.82;96470.44;1222780;75;2925528;-68
2024/01/03 10:03:07;;;;;;;3.35;2.05;;;;;;;18.31;47.02;96467.72;1222525;75;2924923;-69
2024/01/03 10:05:41;;;;;;;3.55;2.30;;;;;;;20.19;46.15;96463.53;1223094;75;2931436;-66
2024/01/03 10:08:23;;;;;;;3.45;2.30;;;;;;;19.50;43.17;96455.75;1222330;75;2930591;-67
2024/01/03 10:10:58;;;;;;;2.60;1.80;;;;;;;21.01;41.46;96444.28;1223178;75;2920926;-68
2024/01/03 10:13:31;;;;;;;3.75;1.90;;;;;;;21.95;38.75;96436.78;1223283;75;2936038;-67
2024/01/03 10:16:08;;;;;;;1.65;1.30;;;;;;;21.63;39.04;96433.75;1222866;75;2921864;-68
2024/01/03 10:18:41;;;;;;;3.10;1.65;;;;;;;23.84;37.06;96429.19;1223033;75;2916111;-67
2024/01/03 10:21:17;;;;;;;2.05;1.40;;;;;;;25.09;34.38;96420.41;1223647;75;2926706;-67
2024/01/03 10:24:03;;;;;;;3.40;1.40;;;;;;;26.72;33.70;96422.94;1223304;75;2933345;-69
2024/01/03 10:26:38;;;;;;;1.80;1.30;;;;;;;25.33;33.85;96429.63;1223599;75;2927359;-68
2024/01/03 10:29:16;;;;;;;2.65;1.50;;;;;;;24.96;34.22;96429.38;1223778;75;2919225;-69
2024/01/03 10:31:51;;;;;;;2.60;1.40;;;;;;;27.35;32.21;96434.13;1224027;75;2922591;-68
2024/01/03 10:34:28;;;;;;;2.40;1.25;;;;;;;26.56;32.93;96445.25;1223605;75;2935113;-68
2024/01/03 10:37:02;;;;;;;2.85;1.60;;;;;;;24.63;33.27;96447.66;1223521;75;2924766;-68
2024/01/03 10:39:36;;;;;;;6.90;1.95;;;;;;;24.54;33.47;96444.94;1224111;75;2925320;-68
2024/01/03 10:42:12;;;;;;;2.10;1.35;;;;;;;23.02;35.92;96456.34;1223533;75;2918845;-68
2024/01/03 10:44:50;;;;;;;1.95;1.30;;;;;;;25.05;34.75;96454.50;1222848;75;2930997;-69
2024/01/03 10:47:22;;;;;;;1.60;1.00;;;;;;;26.02;33.56;96449.13;1221839;75;2936055;-68
2024/01/03 10:49:56;;;;;;;1.35;0.95;;;;;;;26.75;31.99;96444.91;1221164;75;3032986;-68
2024/01/03 10:52:31;;;;;;;2.35;1.10;;;;;;;23.90;34.26;96445.63;1223977;75;2921619;-67
2024/01/03 10:55:06;;;;;;;1.85;1.20;;;;;;;24.55;33.91;96438.00;1223134;75;2921268;-67
2024/01/03 10:57:54;;;;;;;3.05;1.20;;;;;;;23.75;33.74;96444.69;1224332;75;2917963;-67
2024/01/03 11:00:46;;;;;;;2.50;1.20;;;;;;;24.50;34.19;96427.88;1224602;75;2921557;-67
2024/01/03 11:03:33;;;;;;;2.50;1.10;;;;;;;24.41;33.08;96421.00;1224211;75;2935188;-67
2024/01/03 11:06:18;;;;;;;2.30;0.85;;;;;;;25.59;31.81;96413.66;1222389;75;2926888;-69
2024/01/03 11:08:55;;;;;;;1.65;0.90;;;;;;;28.13;30.35;96418.44;1224615;75;2924042;-68
2024/01/03 11:11:35;;;;;;;0.95;0.85;;;;;;;28.32;30.70;96417.97;1225743;75;2915514;-68
2024/01/03 11:14:27;;;;;;;1.15;0.80;;;;;;;27.22;29.80;96415.88;1224278;75;2917058;-68
2024/01/03 11:17:00;;;;;;;4.00;0.90;;;;;;;25.83;31.37;96411.59;1224705;75;2920050;-68
2024/01/03 11:19:34;;;;;;;3.90;0.95;;;;;;;25.18;31.68;96414.00;1223964;75;2920314;-69
2024/01/03 11:22:08;;;;;;;2.20;1.05;;;;;;;25.87;31.39;96408.31;1224989;75;2925924;-68
2024/01/03 11:24:47;;;;;;;1.20;1.00;;;;;;;26.46;32.54;96405.34;1223368;75;2909730;-68
2024/01/03 11:27:28;;;;;;;1.70;0.80;;;;;;;26.22;31.65;96399.81;1225211;75;2915639;-70
2024/01/03 11:30:04;;;;;;;2.05;0.80;;;;;;;27.43;31.24;96409.25;1224162;75;2915492;-68
2024/01/03 11:32:39;;;;;;;1.05;0.60;;;;;;;24.64;32.76;96403.63;1223987;75;2939429;-67
2024/01/03 11:35:12;;;;;;;1.35;1.00;;;;;;;24.08;34.01;96401.41;1224454;68;2919460;-68
2024/01/03 11:37:46;;;;;;;1.15;0.70;;;;;;;24.15;33.41;96392.81;1224012;75;2921871;-67
2024/01/03 11:40:23;;;;;;;1.55;0.60;;;;;;;25.55;32.16;96387.47;1223887;75;2915233;-68
2024/01/03 11:43:07;;;;;;;1.40;0.70;;;;;;;25.62;32.08;96384.41;1224608;75;2924085;-67
2024/01/03 11:45:42;;;;;;;1.05;0.85;;;;;;;25.98;31.52;96387.94;1224562;75;2923688;-68
2024/01/03 11:48:23;;;;;;;0.95;0.80;;;;;;;25.68;31.68;96389.66;1224874;75;2912633;-69
2024/01/03 11:50:56;;;;;;;1.70;0.70;;;;;;;26.07;31.58;96391.91;1223815;75;2918723;-69
2024/01/03 11:53:28;;;;;;;0.90;0.50;;;;;;;26.80;29.71;96383.38;1224936;75;2920885;-68
2024/01/03 11:56:01;;;;;;;0.90;0.60;;;;;;;29.07;28.55;96372.25;1224006;75;2923904;-66
2024/01/03 11:58:34;;;;;;;0.80;0.50;;;;;;;29.88;27.71;96371.59;1223565;75;2917237;-69
2024/01/03 12:01:16;;;;;;;0.55;0.40;;;;;;;31.91;26.29;96365.94;1223588;75;2939949;-67
2024/01/03 12:03:49;;;;;;;0.40;0.25;;;;;;;31.97;26.01;96371.13;1224175;75;2926611;-70
2024/01/03 12:06:23;;;;;;;0.95;0.60;;;;;;;31.69;25.98;96374.38;1224525;75;2922871;-67
2024/01/03 12:08:56;;;;;;;0.65;0.50;;;;;;;32.17;25.63;96374.63;1224261;75;2927327;-67
2024/01/03 12:11:29;;;;;;;0.50;0.50;;;;;;;33.12;25.10;96369.09;1223576;75;2922868;-67
2024/01/03 12:14:02;;;;;;;0.80;0.50;;;;;;;32.23;24.45;96357.84;1224219;75;2935192;-70
2024/01/03 12:16:48;;;;;;;0.45;0.30;;;;;;;33.40;24.63;96352.88;1222936;75;2935757;-69
2024/01/03 12:19:26;;;;;;;0.80;0.20;;;;;;;34.26;23.06;96338.13;1224529;75;2921246;-70
2024/01/03 12:21:59;;;;;;;;;;;;;;;32.07;24.94;96343.13;1225027;75;2927766;-69
2024/01/03 12:24:41;;;;;;;1.00;0.60;;;;;;;33.40;24.09;96344.38;1224213;75;2923594;-70
2024/01/03 12:27:22;;;;;;;0.50;0.30;;;;;;;33.48;23.62;96336.09;1223455;75;2923650;-67
2024/01/03 12:30:12;;;;;;;0.80;0.40;;;;;;;30.64;25.66;96349.97;1222605;75;2930968;-70
2024/01/03 12:32:49;;;;;;;2.75;0.40;;;;;;;31.79;25.81;96343.59;1223839;75;2928510;-70
2024/01/03 12:35:22;;;;;;;1.00;0.60;;;;;;;29.83;27.66;96336.81;1224438;75;2933273;-67
2024/01/03 12:37:54;;;;;;;1.15;0.50;;;;;;;27.75;28.50;96334.28;1222759;75;2920292;-70
2024/01/03 12:40:27;;;;;;;0.65;0.55;;;;;;;27.33;29.38;96335.66;1224471;75;2924351;-67
2024/01/03 12:43:00;;;;;;;2.05;0.50;;;;;;;27.30;29.18;96339.69;1223405;75;2927155;-69
2024/01/03 12:45:34;;;;;;;0.70;0.50;;;;;;;27.51;29.35;96342.19;1223784;75;2919180;-69
2024/01/03 12:48:11;;;;;;;1.10;0.50;;;;;;;27.12;30.06;96340.16;1223772;75;2918541;-67
2024/01/03 12:50:44;;;;;;;0.70;0.50;;;;;;;27.69;30.57;96336.06;1223412;75;2931635;-67
2024/01/03 12:53:17;;;;;;;1.20;0.70;;;;;;;25.48;32.38;96342.28;1223955;75;2925964;-64
2024/01/03 12:55:51;;;;;;;0.70;0.40;;;;;;;25.97;32.35;96343.66;1222814;75;2922472;-67
2024/01/03 12:58:24;;;;;;;1.85;0.75;;;;;;;24.26;33.52;96345.91;1221854;75;2927377;-66
2024/01/03 13:00:58;;;;;;;0.80;0.60;;;;;;;25.04;32.91;96340.31;1224303;75;2916757;-69
2024/01/03 13:03:33;;;;;;;0.95;0.55;;;;;;;24.31;33.50;96345.56;1223538;75;2928183;-69
2024/01/03 13:06:06;;;;;;;0.80;0.55;;;;;;;22.30;35.87;96348.81;1224324;75;2920112;-67
2024/01/03 13:08:39;;;;;;;0.55;0.40;;;;;;;25.05;34.51;96338.97;1223092;75;2917512;-68
2024/01/03 13:11:12;;;;;;;2.25;0.70;;;;;;;22.93;36.62;96335.03;1224064;75;2920529;-66
2024/01/03 13:13:47;;;;;;;0.90;0.45;;;;;;;23.79;34.76;96340.84;1223594;75;2940579;-69
2024/01/03 13:16:19;;;;;;;1.05;0.70;;;;;;;23.51;35.62;96337.59;1224054;75;2928209;-68
2024/01/03 13:18:55;;;;;;;0.60;0.50;;;;;;;22.89;36.18;96341.06;1223314;75;2927578;-68
2024/01/03 13:21:28;;;;;;;1.10;0.90;;;;;;;21.82;39.27;96341.16;1224149;75;2914947;-68
2024/01/03 13:24:00;;;;;;;1.60;0.70;;;;;;;22.91;36.26;96335.63;1223685;75;2922446;-68
2024/01/03 13:26:33;;;;;;;1.30;0.50;;;;;;;23.56;35.91;96330.22;1223015;75;2924993;-66
2024/01/03 13:29:06;;;;;;;1.70;0.70;;;;;;;22.90;37.31;96342.53;1223351;75;2923827;-67
2024/01/03 13:31:39;;;;;;;1.45;0.95;;;;;;;23.33;37.25;96336.34;1223819;75;2917751;-70
2024/01/03 13:34:15;;;;;;;2.80;1.20;;;;;;;22.11;38.19;96332.78;1222559;75;2917515;-68
2024/01/03 13:36:47;;;;;;;1.45;0.85;;;;;;;22.40;38.35;96329.28;1222990;75;2930436;-68
2024/01/03 13:39:20;;;;;;;0.90;0.80;;;;;;;21.25;39.77;96322.97;1224046;75;2922966;-68
2024/01/03 13:41:53;;;;;;;1.55;0.70;;;;;;;22.02;39.18;96314.03;1223382;75;2922175;-67
2024/01/03 13:44:26;;;;;;;1.00;0.50;;;;;;;23.43;36.93;96308.38;1223009;75;2913532;-68
2024/01/03 13:46:59;;;;;;;0.90;0.60;;;;;;;20.79;40.70;96310.50;1223093;75;2920222;-65
2024/01/03 13:49:34;;;;;;;1.45;0.85;;;;;;;21.09;40.79;96314.13;1224372;75;2918877;-68
2024/01/03 13:52:08;;;;;;;1.30;0.60;;;;;;;20.58;41.23;96316.53;1223438;75;2916739;-69
2024/01/03 13:54:42;;;;;;;1.00;0.75;;;;;;;18.04;45.49;96317.88;1223851;75;2898144;-66
2024/01/03 13:57:15;;;;;;;1.15;0.70;;;;;;;17.07;48.41;96324.44;1223417;75;2925921;-65
2024/01/03 13:59:49;;;;;;;1.50;1.10;;;;;;;16.00;50.45;96321.38;1221994;75;2921378;-69
2024/01/03 14:02:22;;;;;;;1.45;0.85;;;;;;;15.40;52.62;96314.94;1223007;75;2920868;-67
2024/01/03 14:04:57;;;;;;;2.15;1.30;;;;;;;14.99;53.95;96314.44;1223280;75;2925134;-69
2024/01/03 14:07:30;;;;;;;2.25;0.80;;;;;;;14.57;54.99;96310.91;1223428;75;2921540;-67
2024/01/03 14:10:04;;;;;;;1.55;0.80;;;;;;;13.89;57.60;96317.09;1222937;75;2924656;-69
2024/01/03 14:12:37;;;;;;;1.60;0.75;;;;;;;13.96;57.33;96311.69;1223837;75;2938177;-66
2024/01/03 14:15:13;;;;;;;1.80;0.65;;;;;;;13.80;57.61;96310.00;1224159;75;2956550;-68
2024/01/03 14:17:46;;;;;;;1.40;0.80;;;;;;;13.55;57.45;96306.75;1224751;75;2916634;-66
2024/01/03 14:20:22;;;;;;;0.90;0.70;;;;;;;13.49;58.45;96315.09;1224428;75;2925384;-68
2024/01/03 14:22:55;;;;;;;1.85;0.95;;;;;;;13.10;60.63;96324.72;1224730;75;2918578;-68
2024/01/03 14:25:28;;;;;;;1.50;0.80;;;;;;;13.10;61.45;96318.50;1224450;75;2918699;-66
2024/01/03 14:28:01;;;;;;;1.15;0.70;;;;;;;12.75;62.19;96314.84;1224658;75;2914584;-66
2024/01/03 14:30:34;;;;;;;0.45;0.45;;;;;;;12.62;62.91;96321.00;1223272;75;2925327;-68
2024/01/03 14:33:07;;;;;;;0.65;0.60;;;;;;;12.53;63.23;96315.88;1223792;75;2917815;-67
2024/01/03 14:35:42;;;;;;;0.85;0.70;;;;;;;12.48;63.71;96322.97;1225081;75;2919223;-67
2024/01/03 14:38:15;;;;;;;1.20;0.70;;;;;;;12.30;64.32;96327.19;1224135;75;2927531;-69
2024/01/03 14:40:49;;;;;;;1.10;0.80;;;;;;;12.21;64.84;96321.34;1224799;75;2914191;-66
2024/01/03 14:46:07;;;;;;;1.20;0.80;;;;;;;12.09;65.14;96326.22;1223908;75;2923451;-69
2024/01/03 14:48:40;;;;;;;1.15;0.90;;;;;;;11.94;65.08;96329.41;1223066;75;2919182;-66
2024/01/03 14:51:15;;;;;;;21.60;13.90;;;;;;;11.73;65.82;96326.38;1223430;75;2931092;-68
2024/01/03 14:53:48;;;;;;;6.05;3.05;;;;;;;11.68;66.90;96335.41;1223738;75;2922671;-66
2024/01/03 14:56:21;;;;;;;2.75;1.85;;;;;;;11.83;66.06;96327.50;1223323;75;2917021;-66
2024/01/03 14:58:54;;;;;;;1.60;1.20;;;;;;;12.00;65.62;96324.59;1222663;75;2921247;-67
2024/01/03 15:01:27;;;;;;;1.45;0.95;;;;;;;11.67;66.09;96337.41;1223162;75;2922175;-66
2024/01/03 15:04:00;;;;;;;2.50;1.10;;;;;;;11.41;67.01;96332.44;1223392;75;2923407;-70
2024/01/03 15:06:36;;;;;;;1.30;1.00;;;;;;;11.35;67.51;96331.00;1222600;75;2921979;-67
2024/01/03 15:09:09;;;;;;;3.60;1.30;;;;;;;11.21;67.86;96330.16;1224216;75;2920927;-66
2024/01/03 15:11:41;;;;;;;1.60;1.20;;;;;;;11.18;68.33;96322.94;1224697;75;2919580;-64
2024/01/03 15:14:14;;;;;;;1.70;1.00;;;;;;;11.19;68.50;96322.44;1223714;75;2920152;-67
2024/01/03 15:16:47;;;;;;;1.55;0.90;;;;;;;11.14;67.96;96327.97;1224040;75;2921655;-67
2024/01/03 15:19:20;;;;;;;1.65;1.10;;;;;;;11.39;67.47;96331.47;1224644;75;2927069;-66
2024/01/03 15:22:15;;;;;;;1.35;0.80;;;;;;;11.41;67.93;96326.97;1223971;75;2926923;-66
2024/01/03 15:24:51;;;;;;;2.15;0.70;;;;;;;10.82;70.19;96328.47;1224528;75;2915454;-65
2024/01/03 15:27:24;;;;;;;2.00;1.10;;;;;;;10.22;72.47;96321.63;1223346;75;2923654;-66
2024/01/03 15:29:56;;;;;;;3.50;1.60;;;;;;;10.14;73.94;96328.13;1223739;75;2925852;-66
2024/01/03 15:32:29;;;;;;;4.45;2.30;;;;;;;10.26;73.74;96321.34;1224143;75;2920774;-64
2024/01/03 15:35:02;;;;;;;11.65;5.60;;;;;;;9.91;75.94;96333.72;1224820;75;2922538;-66
2024/01/03 15:37:37;;;;;;;10.70;5.35;;;;;;;9.59;78.78;96330.59;1224429;75;2925546;-66
2024/01/03 15:40:12;;;;;;;8.80;4.30;;;;;;;9.35;80.67;96314.75;1224450;75;2930633;-65
2024/01/03 15:42:45;;;;;;;8.80;4.30;;;;;;;9.21;82.35;96324.69;1224082;75;2936267;-68
2024/01/03 15:45:18;;;;;;;7.50;3.65;;;;;;;9.25;84.40;96327.94;1224119;75;2928369;-65
2024/01/03 15:47:51;;;;;;;16.75;7.40;;;;;;;8.86;86.28;96328.72;1224665;75;2922775;-67
2024/01/03 15:50:24;;;;;;;15.95;7.55;;;;;;;8.86;87.32;96315.06;1224539;75;2920397;-70
2024/01/03 15:52:59;;;;;;;11.40;6.20;;;;;;;8.42;92.41;96319.25;1223505;75;2923604;-66
2024/01/03 15:55:32;;;;;;;11.10;5.65;;;;;;;8.84;88.12;96316.81;1224392;75;2920826;-67
2024/01/03 15:58:05;;;;;;;9.15;4.55;;;;;;;8.80;88.76;96308.84;1223055;75;2915230;-67
2024/01/03 16:00:39;;;;;;;6.45;3.95;;;;;;;8.80;89.49;96319.75;1222883;75;2919608;-68
2024/01/03 16:03:13;;;;;;;5.45;4.40;;;;;;;8.23;94.52;96329.84;1222759;75;2923584;-66
2024/01/03 16:05:46;;;;;;;9.30;5.45;;;;;;;8.37;96.80;96319.97;1221551;75;2936278;-67
2024/01/03 16:08:22;;;;;;;6.40;4.10;;;;;;;8.36;96.25;96325.91;1222876;75;2929340;-65
2024/01/03 16:10:54;;;;;;;6.95;3.75;;;;;;;8.50;92.79;96320.25;1224060;75;2925380;-66
2024/01/03 16:13:27;;;;;;;4.40;2.95;;;;;;;8.21;97.16;96328.84;1224175;75;2923230;-70
2024/01/03 16:16:01;;;;;;;6.40;3.55;;;;;;;8.20;98.31;96332.81;1225035;75;2926958;-65
2024/01/03 16:18:34;;;;;;;4.85;2.95;;;;;;;8.27;95.67;96326.88;1223053;75;2926252;-67
2024/01/03 16:21:07;;;;;;;5.60;3.35;;;;;;;7.93;100.00;96326.03;1225152;75;2925222;-67
2024/01/03 16:23:49;;;;;;;6.20;3.30;;;;;;;7.73;100.00;96327.69;1223555;75;2919062;-66
2024/01/03 16:26:22;;;;;;;5.40;3.55;;;;;;;7.73;100.00;96332.41;1224003;75;2919593;-69
2024/01/03 16:28:55;;;;;;;7.85;4.50;;;;;;;7.22;100.00;96332.13;1224150;75;2923465;-65
2024/01/03 16:31:28;;;;;;;7.30;4.50;;;;;;;7.22;100.00;96327.44;1223251;75;2935896;-63
2024/01/03 16:34:01;;;;;;;5.70;4.00;;;;;;;7.45;100.00;96324.84;1223879;75;2921717;-66
2024/01/03 16:36:33;;;;;;;6.40;3.65;;;;;;;7.33;100.00;96329.47;1224408;75;2921185;-64
2024/01/03 16:39:12;;;;;;;21.00;10.55;;;;;;;7.09;100.00;96334.50;1224314;75;2925007;-69
2024/01/03 16:41:44;;;;;;;;;;;;;;;7.00;100.00;96325.31;1224897;75;2922739;-67
2024/01/03 16:44:18;;;;;;;15.80;9.15;;;;;;;7.31;100.00;96323.03;1223541;75;2939986;-66
2024/01/03 16:46:52;;;;;;;16.40;8.95;;;;;;;7.27;100.00;96320.53;1224384;75;2920164;-67
2024/01/03 16:49:25;;;;;;;14.50;8.15;;;;;;;6.99;100.00;96336.66;1223773;75;2926485;-67
2024/01/03 16:51:59;;;;;;;16.55;11.00;;;;;;;6.25;100.00;96337.25;1224873;75;2915799;-68
2024/01/03 16:54:34;;;;;;;19.45;12.15;;;;;;;6.25;100.00;96340.72;1224171;75;2920239;-65
2024/01/03 16:57:07;;;;;;;14.05;8.85;;;;;;;6.62;100.00;96329.22;1224675;75;2908718;-66
2024/01/03 16:59:40;;;;;;;10.85;7.65;;;;;;;6.30;100.00;96342.00;1224980;75;2918365;-67
2024/01/03 17:02:13;;;;;;;9.65;6.45;;;;;;;6.38;100.00;96335.66;1224340;75;2922090;-65
2024/01/03 17:04:46;;;;;;;8.20;5.85;;;;;;;6.47;100.00;96328.56;1223776;75;2924213;-67
2024/01/03 17:07:19;;;;;;;6.75;4.85;;;;;;;6.45;100.00;96331.78;1223648;75;2924774;-67
2024/01/03 17:09:58;;;;;;;6.70;4.40;;;;;;;6.36;100.00;96329.97;1223674;75;2918447;-65
2024/01/03 17:12:31;;;;;;;5.25;3.75;;;;;;;6.27;100.00;96329.38;1224506;75;2927287;-67
2024/01/03 17:15:04;;;;;;;5.90;3.85;;;;;;;6.17;100.00;96329.53;1223659;75;2930952;-66
2024/01/03 17:17:36;;;;;;;5.15;3.75;;;;;;;5.97;100.00;96319.44;1223275;75;2982406;-66
2024/01/03 17:20:12;;;;;;;5.60;3.75;;;;;;;5.90;100.00;96316.38;1224466;67;2919081;-65
2024/01/03 17:22:45;;;;;;;5.55;3.90;;;;;;;5.91;100.00;96313.16;1224756;75;2923375;-66
2024/01/03 17:25:20;;;;;;;6.25;3.85;;;;;;;5.88;100.00;96327.72;1225376;75;2916628;-67
2024/01/03 17:27:53;;;;;;;25.10;17.75;;;;;;;5.51;100.00;96330.97;1224560;75;2923816;-66